createdAt,value
2022-11-17T00:00:33.907Z,2.35
2022-11-17T00:03:15.792Z,2.10
2022-11-17T00:06:02.873Z,2.30
2022-11-17T00:08:50.066Z,2.13
2022-11-17T00:11:29.910Z,2.22
2022-11-17T00:14:28.883Z,2.22
2022-11-17T00:17:21.891Z,2.00
2022-11-17T00:20:27.728Z,2.70
2022-11-17T00:23:06.898Z,2.13
2022-11-17T00:25:53.876Z,2.53
2022-11-17T00:28:40.894Z,2.35
2022-11-17T00:31:47.886Z,2.30
2022-11-17T00:34:35.915Z,2.40
2022-11-17T00:37:23.008Z,2.47
2022-11-17T00:40:02.963Z,2.45
2022-11-17T00:42:49.952Z,2.90
2022-11-17T00:45:36.893Z,2.38
2022-11-17T00:48:17.066Z,2.30
2022-11-17T00:51:03.889Z,2.50
2022-11-17T00:53:50.910Z,2.47
2022-11-17T00:56:38.051Z,2.80
2022-11-17T00:59:17.908Z,2.72
2022-11-17T01:02:05.024Z,2.47
2022-11-17T01:04:44.905Z,2.42
2022-11-17T01:07:26.009Z,2.30
2022-11-17T01:10:12.885Z,2.75
2022-11-17T01:12:53.392Z,2.50
2022-11-17T01:15:39.912Z,2.55
2022-11-17T01:18:26.892Z,2.10
2022-11-17T01:24:12.895Z,2.10
2022-11-17T01:26:53.035Z,1.90
2022-11-17T01:29:39.886Z,1.85
2022-11-17T01:32:19.984Z,1.85
2022-11-17T01:35:06.886Z,2.00
2022-11-17T01:37:53.872Z,1.85
2022-11-17T01:40:40.909Z,1.88
2022-11-17T01:43:27.891Z,2.10
2022-11-17T01:46:54.586Z,2.00
2022-11-17T01:49:37.394Z,2.05
2022-11-17T01:52:24.907Z,2.10
2022-11-17T01:55:14.956Z,2.10
2022-11-17T01:58:00.917Z,2.08
2022-11-17T02:00:41.971Z,2.00
2022-11-17T02:06:18.727Z,1.80
2022-11-17T02:09:06.907Z,1.70
2022-11-17T02:11:54.904Z,1.70
2022-11-17T02:14:41.919Z,1.90
2022-11-17T02:17:24.512Z,2.05
2022-11-17T02:20:22.888Z,1.80
2022-11-17T02:23:47.904Z,1.73
2022-11-17T02:26:52.939Z,1.70
2022-11-17T02:30:06.889Z,1.70
2022-11-17T02:32:58.000Z,1.50
2022-11-17T02:36:22.913Z,1.60
2022-11-17T02:39:25.037Z,1.60
2022-11-17T02:42:55.883Z,1.40
2022-11-17T02:45:55.889Z,1.50
2022-11-17T02:48:40.300Z,1.45
2022-11-17T02:51:32.922Z,1.60
2022-11-17T02:54:19.924Z,1.20
2022-11-17T02:57:06.923Z,1.50
2022-11-17T02:59:55.888Z,1.20
2022-11-17T03:02:51.926Z,1.50
2022-11-17T03:05:48.892Z,1.30
2022-11-17T03:08:57.969Z,1.40
2022-11-17T03:12:27.899Z,1.30
2022-11-17T03:18:16.905Z,1.40
2022-11-17T03:21:29.894Z,1.38
2022-11-17T03:24:25.309Z,1.42
2022-11-17T03:27:38.920Z,1.55
2022-11-17T03:30:31.999Z,1.30
2022-11-17T03:33:21.931Z,1.35
2022-11-17T03:36:39.899Z,1.33
2022-11-17T03:39:44.923Z,1.30
2022-11-17T03:42:35.911Z,1.30
2022-11-17T03:45:37.908Z,1.33
2022-11-17T03:48:34.904Z,1.20
2022-11-17T03:51:44.884Z,1.23
2022-11-17T03:54:31.883Z,1.30
2022-11-17T03:57:26.889Z,1.27
2022-11-17T04:00:18.945Z,1.17
2022-11-17T04:03:04.918Z,1.17
2022-11-17T04:05:45.594Z,1.17
2022-11-17T04:08:35.941Z,1.30
2022-11-17T04:11:58.568Z,1.30
2022-11-17T04:14:56.908Z,1.10
2022-11-17T04:17:37.368Z,1.15
2022-11-17T04:20:23.906Z,1.20
2022-11-17T04:23:11.381Z,1.50
2022-11-17T04:26:18.887Z,1.50
2022-11-17T04:29:05.951Z,1.20
2022-11-17T04:31:45.898Z,1.30
2022-11-17T04:34:32.965Z,1.50
2022-11-17T04:37:23.887Z,1.20
2022-11-17T04:40:10.911Z,1.20
2022-11-17T04:42:57.913Z,1.30
2022-11-17T04:48:38.909Z,1.30
2022-11-17T04:51:18.944Z,1.35
2022-11-17T04:54:05.939Z,1.00
2022-11-17T04:59:32.879Z,1.23
2022-11-17T05:02:13.055Z,1.17
2022-11-17T05:05:02.923Z,1.30
2022-11-17T05:07:49.944Z,1.60
2022-11-17T05:10:54.909Z,1.20
2022-11-17T05:13:41.959Z,1.23
2022-11-17T05:22:39.891Z,1.70
2022-11-17T05:25:19.944Z,1.50
2022-11-17T05:28:06.913Z,1.20
2022-11-17T05:30:53.893Z,1.23
2022-11-17T05:33:41.289Z,1.40
2022-11-17T05:36:21.922Z,1.48
2022-11-17T05:41:48.905Z,1.50
2022-11-17T05:44:42.915Z,1.58
2022-11-17T05:47:29.912Z,1.75
2022-11-17T05:50:10.050Z,1.40
2022-11-17T05:52:57.052Z,1.80
2022-11-17T05:58:32.927Z,1.60
2022-11-17T06:01:22.913Z,1.42
2022-11-17T06:04:11.993Z,1.30
2022-11-17T06:06:53.922Z,1.55
2022-11-17T06:09:43.928Z,1.30
2022-11-17T06:12:30.908Z,1.38
2022-11-17T06:15:11.376Z,1.30
2022-11-17T06:18:06.931Z,1.25
2022-11-17T06:20:56.010Z,1.60
2022-11-17T06:23:38.964Z,1.20
2022-11-17T06:26:19.556Z,1.48
2022-11-17T06:29:05.904Z,1.10
2022-11-17T06:31:47.036Z,1.00
2022-11-17T06:34:42.907Z,1.10
2022-11-17T06:37:30.891Z,1.17
2022-11-17T06:40:13.252Z,1.00
2022-11-17T06:43:15.906Z,0.80
2022-11-17T06:46:09.929Z,1.10
2022-11-17T06:48:56.924Z,1.30
2022-11-17T06:51:45.358Z,1.10
2022-11-17T06:54:31.982Z,1.50
2022-11-17T07:00:26.027Z,0.95
2022-11-17T07:03:07.946Z,2.72
2022-11-17T07:05:54.955Z,1.10
2022-11-17T07:08:41.948Z,1.25
2022-11-17T07:11:28.977Z,1.15
2022-11-17T07:14:10.038Z,1.00
2022-11-17T07:19:37.003Z,0.73
2022-11-17T07:22:23.970Z,0.90
2022-11-17T07:25:04.081Z,0.80
2022-11-17T07:27:50.966Z,0.90
2022-11-17T07:30:37.962Z,0.90
2022-11-17T07:36:22.970Z,0.70
2022-11-17T07:39:14.076Z,1.10
2022-11-17T07:41:57.006Z,0.80
2022-11-17T07:44:50.971Z,0.70
2022-11-17T07:47:31.430Z,0.75
2022-11-17T07:50:17.970Z,1.10
2022-11-17T07:55:44.966Z,0.80
2022-11-17T07:58:25.552Z,0.70
2022-11-17T08:01:12.022Z,0.93
2022-11-17T08:03:52.644Z,0.60
2022-11-17T08:06:38.987Z,0.70
2022-11-17T08:12:05.989Z,0.73
2022-11-17T08:14:46.460Z,0.80
2022-11-17T08:17:32.995Z,0.80
2022-11-17T08:23:01.007Z,0.73
2022-11-17T08:25:48.006Z,0.65
2022-11-17T08:31:09.475Z,0.60
2022-11-17T08:33:55.987Z,0.68
2022-11-17T08:39:22.990Z,0.75
2022-11-17T08:45:03.994Z,0.90
2022-11-17T08:47:51.072Z,0.70
2022-11-17T08:50:30.981Z,1.00
2022-11-17T08:53:14.975Z,0.70
2022-11-17T08:56:01.975Z,0.77
2022-11-17T09:01:32.023Z,0.50
2022-11-17T09:06:58.979Z,0.70
2022-11-17T09:12:25.921Z,0.65
2022-11-17T09:17:54.910Z,0.60
2022-11-17T09:20:35.483Z,0.70
2022-11-17T09:23:21.964Z,0.65
2022-11-17T09:28:51.936Z,0.52
2022-11-17T09:31:32.571Z,0.70
2022-11-17T09:34:18.960Z,0.60
2022-11-17T09:39:45.918Z,0.50
2022-11-17T09:45:29.974Z,0.70
2022-11-17T09:48:40.617Z,0.75
2022-11-17T09:51:24.930Z,0.60
2022-11-17T09:54:18.422Z,0.70
2022-11-17T09:57:04.961Z,0.57
2022-11-17T10:02:32.031Z,0.70
2022-11-17T10:05:20.698Z,0.63
2022-11-17T10:08:10.944Z,0.75
2022-11-17T10:11:05.945Z,0.82
2022-11-17T10:13:55.964Z,0.68
2022-11-17T10:16:37.054Z,0.82
2022-11-17T10:19:31.970Z,0.70
2022-11-17T10:22:20.832Z,0.60
2022-11-17T10:25:07.956Z,0.63
2022-11-17T10:31:03.098Z,0.60
2022-11-17T10:33:52.011Z,0.70
2022-11-17T10:36:39.990Z,0.63
2022-11-17T10:39:39.956Z,0.70
2022-11-17T10:42:27.147Z,0.60
2022-11-17T10:48:24.949Z,0.70
2022-11-17T10:51:25.082Z,0.82
2022-11-17T10:54:23.972Z,0.80
2022-11-17T10:57:12.944Z,0.80
2022-11-17T10:59:57.681Z,0.70
2022-11-17T11:02:48.953Z,0.63
2022-11-17T11:05:35.966Z,0.70
2022-11-17T11:08:30.019Z,0.68
2022-11-17T11:11:36.263Z,0.85
2022-11-17T11:14:49.957Z,0.70
2022-11-17T11:17:30.749Z,0.63
2022-11-17T11:20:17.947Z,0.80
2022-11-17T11:23:13.946Z,0.70
2022-11-17T11:26:02.035Z,0.70
2022-11-17T11:29:13.222Z,0.90
2022-11-17T11:32:16.733Z,1.70
2022-11-17T11:35:25.983Z,1.52
2022-11-17T11:38:47.985Z,1.70
2022-11-17T11:41:36.686Z,1.85
2022-11-17T11:44:49.979Z,2.40
2022-11-17T11:48:03.799Z,1.60
2022-11-17T11:51:15.012Z,1.50
2022-11-17T11:54:22.926Z,1.70
2022-11-17T11:57:10.985Z,1.70
2022-11-17T12:00:05.916Z,1.40
2022-11-17T12:03:06.023Z,1.10
2022-11-17T12:06:48.957Z,1.08
2022-11-17T12:09:54.998Z,1.38
2022-11-17T12:12:46.971Z,1.30
2022-11-17T12:15:27.057Z,1.52
2022-11-17T12:18:20.963Z,1.67
2022-11-17T12:21:19.057Z,1.70
2022-11-17T12:24:17.975Z,1.20
2022-11-17T12:27:04.934Z,1.00
2022-11-17T12:32:58.966Z,0.80
2022-11-17T12:35:39.996Z,1.00
2022-11-17T12:38:29.958Z,1.40
2022-11-17T12:41:16.941Z,0.90
2022-11-17T12:46:51.031Z,0.82
2022-11-17T12:52:49.955Z,1.20
2022-11-17T12:55:39.010Z,0.98
2022-11-17T12:58:31.969Z,0.82
2022-11-17T13:01:40.167Z,0.80
2022-11-17T13:04:52.954Z,1.00
2022-11-17T13:07:34.041Z,0.82
2022-11-17T13:10:36.941Z,1.23
2022-11-17T13:13:33.978Z,0.98
2022-11-17T13:16:28.166Z,0.80
2022-11-17T13:19:07.985Z,0.82
2022-11-17T13:21:54.957Z,1.00
2022-11-17T13:27:33.093Z,0.80
2022-11-17T13:30:34.991Z,1.00
2022-11-17T13:33:27.937Z,0.60
2022-11-17T13:36:18.958Z,1.02
2022-11-17T13:39:02.837Z,0.73
2022-11-17T13:41:53.038Z,0.75
2022-11-17T13:44:34.196Z,0.70
2022-11-17T13:47:45.981Z,0.80
2022-11-17T13:50:33.259Z,0.80
2022-11-17T13:56:02.662Z,0.80
2022-11-17T13:58:52.969Z,0.90
2022-11-17T14:01:47.036Z,0.85
2022-11-17T14:04:28.023Z,0.77
2022-11-17T14:07:16.023Z,0.80
2022-11-17T14:10:25.954Z,1.00
2022-11-17T14:13:15.959Z,0.80
2022-11-17T14:16:05.982Z,0.73
2022-11-17T14:18:46.009Z,0.73
2022-11-17T14:21:34.004Z,0.90
2022-11-17T14:24:18.995Z,1.00
2022-11-17T14:27:05.974Z,0.90
2022-11-17T14:29:46.356Z,0.88
2022-11-17T14:32:33.022Z,0.88
2022-11-17T14:38:00.968Z,0.80
2022-11-17T14:40:47.982Z,0.90
2022-11-17T14:43:28.491Z,0.80
2022-11-17T14:46:15.157Z,1.00
2022-11-17T14:49:02.011Z,0.60
2022-11-17T14:54:28.965Z,1.05
2022-11-17T14:59:55.968Z,0.82
2022-11-17T15:05:22.980Z,0.80
2022-11-17T15:10:51.969Z,0.80
2022-11-17T15:13:38.957Z,0.80
2022-11-17T15:19:06.751Z,0.80
2022-11-17T15:21:52.967Z,1.10
2022-11-17T15:27:20.951Z,0.70
2022-11-17T15:30:01.152Z,0.80
2022-11-17T15:32:47.964Z,0.70
2022-11-17T15:35:34.941Z,0.80
2022-11-17T15:41:06.980Z,0.82
2022-11-17T15:43:47.431Z,0.80
2022-11-17T15:46:33.978Z,0.77
2022-11-17T15:52:01.030Z,0.82
2022-11-17T15:54:47.997Z,0.90
2022-11-17T16:00:15.986Z,0.70
2022-11-17T16:02:58.768Z,0.80
2022-11-17T16:05:45.970Z,0.80
2022-11-17T16:08:26.014Z,0.85
2022-11-17T16:11:13.996Z,0.73
2022-11-17T16:14:00.959Z,0.70
2022-11-17T16:19:27.962Z,0.77
2022-11-17T16:22:08.461Z,0.77
2022-11-17T16:24:54.986Z,0.90
2022-11-17T16:30:21.966Z,0.80
2022-11-17T16:35:48.991Z,0.80
2022-11-17T16:41:22.991Z,0.98
2022-11-17T16:46:56.991Z,0.90
2022-11-17T16:49:46.766Z,0.80
2022-11-17T16:52:30.017Z,1.00
2022-11-17T16:55:16.977Z,1.00
2022-11-17T17:00:43.990Z,1.17
2022-11-17T17:06:13.987Z,1.00
2022-11-17T17:08:54.110Z,1.00
2022-11-17T17:11:42.986Z,0.70
2022-11-17T17:14:23.038Z,1.05
2022-11-17T17:17:10.010Z,1.00
2022-11-17T17:19:50.056Z,1.23
2022-11-17T17:22:36.978Z,1.00
2022-11-17T17:28:11.989Z,1.20
2022-11-17T17:31:00.065Z,1.00
2022-11-17T17:33:46.962Z,0.93
2022-11-17T17:39:15.451Z,0.98
2022-11-17T17:44:48.983Z,1.10
2022-11-17T17:50:15.964Z,1.10
2022-11-17T17:53:02.961Z,1.33
2022-11-17T17:58:31.431Z,1.20
2022-11-17T18:01:26.007Z,1.02
2022-11-17T18:04:09.113Z,1.00
2022-11-17T18:07:00.006Z,1.30
2022-11-17T18:09:46.974Z,1.20
2022-11-17T18:15:21.049Z,1.30
2022-11-17T18:20:41.468Z,1.10
2022-11-17T18:23:27.970Z,1.13
2022-11-17T18:29:13.424Z,1.10
2022-11-17T18:31:59.965Z,1.25
2022-11-17T18:37:27.989Z,1.10
2022-11-17T18:43:02.024Z,1.30
2022-11-17T18:45:44.969Z,1.20
2022-11-17T18:48:32.069Z,1.10
2022-11-17T18:54:09.013Z,0.98
2022-11-17T18:56:50.062Z,1.10
2022-11-17T18:59:36.957Z,1.00
2022-11-17T19:05:04.982Z,1.08
2022-11-17T19:07:45.119Z,1.23
2022-11-17T19:10:31.994Z,1.20
2022-11-17T19:16:00.009Z,1.13
2022-11-17T19:18:40.082Z,1.40
2022-11-17T19:21:37.994Z,1.20
2022-11-17T19:24:18.117Z,1.40
2022-11-17T19:27:05.005Z,1.33
2022-11-17T19:29:45.042Z,1.20
2022-11-17T19:32:32.013Z,1.20
2022-11-17T19:38:07.977Z,1.25
2022-11-17T19:43:37.915Z,1.23
2022-11-17T19:46:35.024Z,1.20
2022-11-17T19:49:22.005Z,1.17
2022-11-17T19:54:48.989Z,1.30
2022-11-17T20:00:16.986Z,1.33
2022-11-17T20:03:03.997Z,1.70
2022-11-17T20:08:30.993Z,1.45
2022-11-17T20:11:20.104Z,1.55
2022-11-17T20:17:04.969Z,1.50
2022-11-17T20:22:39.356Z,1.30
2022-11-17T20:25:19.986Z,1.63
2022-11-17T20:28:00.472Z,1.50
2022-11-17T20:30:46.989Z,1.60
2022-11-17T20:36:19.008Z,1.27
2022-11-17T20:39:01.861Z,1.45
2022-11-17T20:41:49.008Z,1.42
2022-11-17T20:47:15.979Z,2.08
2022-11-17T20:52:43.981Z,1.85
2022-11-17T20:55:31.052Z,1.67
2022-11-17T21:00:58.066Z,1.90
2022-11-17T21:03:45.036Z,1.90
2022-11-17T21:09:19.978Z,1.90
2022-11-17T21:12:07.136Z,1.98
2022-11-17T21:17:46.195Z,1.77
2022-11-17T21:20:34.996Z,1.95
2022-11-17T21:23:21.993Z,1.77
2022-11-17T21:28:48.990Z,1.98
2022-11-17T21:31:32.084Z,2.03
2022-11-17T21:34:23.033Z,2.15
2022-11-17T21:37:03.120Z,1.90
2022-11-17T21:39:50.002Z,1.98
2022-11-17T21:42:31.101Z,1.92
2022-11-17T21:45:18.032Z,1.83
2022-11-17T21:48:04.980Z,2.10
2022-11-17T21:50:46.511Z,1.90
2022-11-17T21:53:33.001Z,1.65
2022-11-17T21:56:14.314Z,1.85
2022-11-17T21:59:02.749Z,1.80
2022-11-17T22:01:55.981Z,1.83
2022-11-17T22:04:43.076Z,2.13
2022-11-17T22:07:23.090Z,2.20
2022-11-17T22:10:03.906Z,2.20
2022-11-17T22:12:51.017Z,2.03
2022-11-17T22:15:31.470Z,2.30
2022-11-17T22:18:19.007Z,2.35
2022-11-17T22:20:59.515Z,2.50
2022-11-17T22:23:46.000Z,2.40
2022-11-17T22:26:32.996Z,2.30
2022-11-17T22:29:15.527Z,1.70
2022-11-17T22:32:01.992Z,2.20
2022-11-17T22:34:42.077Z,2.28
2022-11-17T22:37:29.032Z,2.03
2022-11-17T22:40:09.089Z,2.50
2022-11-17T22:43:03.551Z,2.10
2022-11-17T22:45:45.069Z,2.10
2022-11-17T22:51:38.480Z,2.05
2022-11-17T22:54:25.012Z,2.22
2022-11-17T22:59:51.989Z,2.08
2022-11-17T23:02:39.025Z,2.30
2022-11-17T23:08:09.791Z,2.40
2022-11-17T23:10:53.759Z,2.20
2022-11-17T23:13:45.998Z,2.20
2022-11-17T23:16:33.017Z,2.40
2022-11-17T23:19:28.033Z,2.15
2022-11-17T23:22:08.685Z,2.00
2022-11-17T23:24:54.998Z,2.25
2022-11-17T23:27:42.020Z,2.08
2022-11-17T23:30:22.113Z,2.60
2022-11-17T23:33:09.037Z,2.50
2022-11-17T23:35:49.162Z,2.13
2022-11-17T23:38:37.993Z,2.13
2022-11-17T23:41:28.011Z,2.53
2022-11-17T23:44:15.045Z,2.20
2022-11-17T23:47:09.011Z,2.30
2022-11-17T23:49:56.000Z,2.65
2022-11-17T23:52:43.045Z,2.30
2022-11-17T23:55:30.009Z,2.50
2022-11-17T23:58:10.072Z,2.28
